createdAt,value
2022-09-05T00:00:23.471Z,85.07
2022-09-05T00:02:56.824Z,86.24
2022-09-05T00:06:03.608Z,85.90
2022-09-05T00:09:02.187Z,87.05
2022-09-05T00:11:43.827Z,87.66
2022-09-05T00:14:14.747Z,87.47
2022-09-05T00:18:00.183Z,87.37
2022-09-05T00:24:33.159Z,87.75
2022-09-05T00:24:36.554Z,88.06
2022-09-05T00:26:45.225Z,88.38
2022-09-05T00:30:41.960Z,88.03
2022-09-05T00:32:34.292Z,89.11
2022-09-05T00:35:26.383Z,89.12
2022-09-05T00:37:55.041Z,88.88
2022-09-05T00:40:38.770Z,89.16
2022-09-05T00:43:24.627Z,89.28
2022-09-05T00:46:02.408Z,89.48
2022-09-05T00:48:52.862Z,89.40
2022-09-05T00:51:54.441Z,89.56
2022-09-05T00:54:26.415Z,89.90
2022-09-05T00:57:36.841Z,89.54
2022-09-05T01:00:18.492Z,90.09
2022-09-05T01:02:57.741Z,90.11
2022-09-05T01:05:59.572Z,90.25
2022-09-05T01:08:58.604Z,90.37
2022-09-05T01:11:53.602Z,90.35
2022-09-05T01:14:58.307Z,90.30
2022-09-05T01:17:53.320Z,90.62
2022-09-05T01:20:56.825Z,90.69
2022-09-05T01:23:42.591Z,91.13
2022-09-05T01:26:43.622Z,90.75
2022-09-05T01:32:44.884Z,90.94
2022-09-05T01:35:13.158Z,91.12
2022-09-05T01:38:00.884Z,90.76
2022-09-05T01:41:18.888Z,91.19
2022-09-05T01:44:18.516Z,91.26
2022-09-05T01:47:00.088Z,91.37
2022-09-05T01:50:01.066Z,91.25
2022-09-05T01:53:06.760Z,91.44
2022-09-05T01:56:09.905Z,91.75
2022-09-05T01:59:07.438Z,92.14
2022-09-05T02:01:53.425Z,92.09
2022-09-05T02:04:21.074Z,92.14
2022-09-05T02:06:54.401Z,91.81
2022-09-05T02:09:37.305Z,91.86
2022-09-05T02:12:21.800Z,92.23
2022-09-05T02:15:04.764Z,92.11
2022-09-05T02:17:50.512Z,92.62
2022-09-05T02:20:32.726Z,92.42
2022-09-05T02:23:27.373Z,92.58
2022-09-05T02:26:04.172Z,92.36
2022-09-05T02:29:12.464Z,92.48
2022-09-05T02:32:04.578Z,92.99
2022-09-05T02:34:32.169Z,92.55
2022-09-05T02:38:58.100Z,92.46
2022-09-05T02:45:11.603Z,93.09
2022-09-05T02:45:16.895Z,92.91
2022-09-05T02:46:21.348Z,93.04
2022-09-05T02:49:14.006Z,92.99
2022-09-05T02:57:33.107Z,93.06
2022-09-05T02:57:33.266Z,93.07
2022-09-05T02:58:08.993Z,92.81
2022-09-05T03:00:45.469Z,92.92
2022-09-05T03:03:36.137Z,93.13
2022-09-05T03:06:17.752Z,93.03
2022-09-05T03:09:17.183Z,93.20
2022-09-05T03:12:28.510Z,93.16
2022-09-05T03:15:18.770Z,93.52
2022-09-05T03:17:56.782Z,93.60
2022-09-05T03:21:09.551Z,93.32
2022-09-05T03:24:26.973Z,93.81
2022-09-05T03:27:42.218Z,95.38
2022-09-05T03:30:13.210Z,94.79
2022-09-05T03:33:15.149Z,94.27
2022-09-05T03:36:10.660Z,96.78
2022-09-05T03:38:50.729Z,97.07
2022-09-05T03:41:21.172Z,96.45
2022-09-05T03:44:26.073Z,96.42
2022-09-05T03:47:12.193Z,96.38
2022-09-05T03:52:01.831Z,96.81
2022-09-05T03:57:10.636Z,96.98
2022-09-05T03:57:17.190Z,96.97
2022-09-05T03:59:21.785Z,96.84
2022-09-05T04:02:57.933Z,96.42
2022-09-05T04:08:18.540Z,96.11
2022-09-05T04:08:19.740Z,96.19
2022-09-05T04:11:01.387Z,96.23
2022-09-05T04:13:41.002Z,96.20
2022-09-05T04:16:43.256Z,96.02
2022-09-05T04:19:25.656Z,96.10
2022-09-05T04:22:06.913Z,96.09
2022-09-05T04:24:48.621Z,96.03
2022-09-05T04:27:40.931Z,95.92
2022-09-05T04:30:39.902Z,96.87
2022-09-05T04:33:37.000Z,96.85
2022-09-05T04:36:24.977Z,96.77
2022-09-05T04:39:20.135Z,97.11
2022-09-05T04:41:51.235Z,97.18
2022-09-05T04:44:46.523Z,97.04
2022-09-05T04:47:20.248Z,96.90
2022-09-05T04:50:20.856Z,97.18
2022-09-05T04:53:34.435Z,97.19
2022-09-05T04:56:07.906Z,97.41
2022-09-05T04:59:59.845Z,97.23
2022-09-05T05:06:15.112Z,97.45
2022-09-05T05:06:17.541Z,97.28
2022-09-05T05:07:27.556Z,97.36
2022-09-05T05:11:07.464Z,97.75
2022-09-05T05:18:02.534Z,97.66
2022-09-05T05:18:14.682Z,98.01
2022-09-05T05:19:15.725Z,98.58
2022-09-05T05:21:52.937Z,98.52
2022-09-05T05:24:26.448Z,98.75
2022-09-05T05:27:16.853Z,98.84
2022-09-05T05:29:50.919Z,99.03
2022-09-05T05:32:44.819Z,98.74
2022-09-05T05:35:17.040Z,98.86
2022-09-05T05:37:51.213Z,98.77
2022-09-05T05:40:27.599Z,99.03
2022-09-05T05:43:20.892Z,99.22
2022-09-05T05:46:02.577Z,99.08
2022-09-05T05:48:39.063Z,99.27
2022-09-05T05:52:00.724Z,99.19
2022-09-05T05:54:47.185Z,99.95
2022-09-05T05:57:44.765Z,99.64
2022-09-05T06:00:28.011Z,99.45
2022-09-05T06:03:29.479Z,99.51
2022-09-05T06:06:09.171Z,99.51
2022-09-05T06:13:24.181Z,99.37
2022-09-05T06:15:02.056Z,99.24
2022-09-05T06:15:40.138Z,99.22
2022-09-05T06:18:15.531Z,99.09
2022-09-05T06:22:10.359Z,98.75
2022-09-05T06:23:49.121Z,98.88
2022-09-05T06:26:35.307Z,98.69
2022-09-05T06:29:38.447Z,98.68
2022-09-05T06:32:18.801Z,98.78
2022-09-05T06:35:13.190Z,98.76
2022-09-05T06:38:02.104Z,98.80
2022-09-05T06:40:38.458Z,98.62
2022-09-05T06:43:32.964Z,98.67
2022-09-05T06:46:15.936Z,99.06
2022-09-05T06:49:30.401Z,98.89
2022-09-05T06:52:29.635Z,98.62
2022-09-05T06:55:19.112Z,98.65
2022-09-05T06:58:19.067Z,98.39
2022-09-05T07:00:51.561Z,98.05
2022-09-05T07:03:52.216Z,97.69
2022-09-05T07:07:01.261Z,97.99
2022-09-05T07:10:22.202Z,97.56
2022-09-05T07:13:07.013Z,97.10
2022-09-05T07:15:53.338Z,96.70
2022-09-05T07:18:47.529Z,96.49
2022-09-05T07:21:27.021Z,96.28
2022-09-05T07:24:22.717Z,96.16
2022-09-05T07:27:12.622Z,95.70
2022-09-05T07:29:49.701Z,95.49
2022-09-05T07:32:32.494Z,95.19
2022-09-05T07:35:03.916Z,95.02
2022-09-05T07:37:41.319Z,94.76
2022-09-05T07:40:26.092Z,93.97
2022-09-05T07:43:08.781Z,94.13
2022-09-05T07:45:55.686Z,93.63
2022-09-05T07:48:34.939Z,93.71
2022-09-05T07:56:46.795Z,92.83
2022-09-05T07:57:09.517Z,91.66
2022-09-05T07:59:43.717Z,90.38
2022-09-05T08:02:13.896Z,90.08
2022-09-05T08:04:42.950Z,88.91
2022-09-05T08:07:49.113Z,88.20
2022-09-05T08:10:22.186Z,87.38
2022-09-05T08:13:22.678Z,87.69
2022-09-05T08:16:09.685Z,87.58
2022-09-05T08:18:55.815Z,87.22
2022-09-05T08:21:31.151Z,86.72
2022-09-05T08:24:09.124Z,86.69
2022-09-05T08:26:53.079Z,86.68
2022-09-05T08:29:41.045Z,85.71
2022-09-05T08:32:11.530Z,85.47
2022-09-05T08:34:55.660Z,85.46
2022-09-05T08:37:27.651Z,84.82
2022-09-05T08:40:10.723Z,84.30
2022-09-05T08:42:42.655Z,84.02
2022-09-05T08:46:41.094Z,84.10
2022-09-05T08:48:30.785Z,83.85
2022-09-05T08:51:10.593Z,83.37
2022-09-05T08:54:14.680Z,83.12
2022-09-05T08:56:45.437Z,82.47
2022-09-05T09:00:18.389Z,82.56
2022-09-05T09:03:13.500Z,80.99
2022-09-05T09:06:14.506Z,81.62
2022-09-05T09:09:14.749Z,80.10
2022-09-05T09:11:45.232Z,79.63
2022-09-05T09:14:36.600Z,80.11
2022-09-05T09:17:17.225Z,79.63
2022-09-05T09:20:08.573Z,79.80
2022-09-05T09:22:45.284Z,79.27
2022-09-05T09:25:44.695Z,78.55
2022-09-05T09:28:50.590Z,76.90
2022-09-05T09:31:46.177Z,76.22
2022-09-05T09:34:36.681Z,75.87
2022-09-05T09:37:12.411Z,75.52
2022-09-05T09:40:07.733Z,73.31
2022-09-05T09:42:57.023Z,72.60
2022-09-05T09:46:05.417Z,72.57
2022-09-05T09:49:04.249Z,73.44
2022-09-05T09:51:46.145Z,73.41
2022-09-05T09:54:45.077Z,71.30
2022-09-05T09:57:27.335Z,72.01
2022-09-05T10:00:11.480Z,71.83
2022-09-05T10:05:35.438Z,72.13
2022-09-05T10:10:50.596Z,71.15
2022-09-05T10:10:52.198Z,70.44
2022-09-05T10:12:55.190Z,69.86
2022-09-05T10:15:54.971Z,69.44
2022-09-05T10:18:40.042Z,70.04
2022-09-05T10:21:16.278Z,69.46
2022-09-05T10:24:20.285Z,69.68
2022-09-05T10:27:06.317Z,68.90
2022-09-05T10:29:55.796Z,67.82
2022-09-05T10:35:10.949Z,68.39
2022-09-05T10:35:52.849Z,68.40
2022-09-05T10:38:43.861Z,69.25
2022-09-05T10:41:22.503Z,69.67
2022-09-05T10:44:03.398Z,69.62
2022-09-05T10:47:10.836Z,67.71
2022-09-05T10:49:46.184Z,67.13
2022-09-05T10:52:22.774Z,67.75
2022-09-05T10:55:14.561Z,67.85
2022-09-05T10:58:30.430Z,65.77
2022-09-05T11:02:29.802Z,66.92
2022-09-05T11:05:06.035Z,66.05
2022-09-05T11:08:27.908Z,65.67
2022-09-05T11:11:34.145Z,65.53
2022-09-05T11:14:26.165Z,66.29
2022-09-05T11:17:02.098Z,66.99
2022-09-05T11:19:51.506Z,67.10
2022-09-05T11:22:24.452Z,67.29
2022-09-05T11:25:04.334Z,68.07
2022-09-05T11:27:45.267Z,68.75
2022-09-05T11:30:30.033Z,70.00
2022-09-05T11:39:48.936Z,69.73
2022-09-05T11:39:52.305Z,69.72
2022-09-05T11:40:30.200Z,69.73
2022-09-05T11:42:49.590Z,70.09
2022-09-05T11:45:56.154Z,70.25
2022-09-05T11:48:29.673Z,70.42
2022-09-05T11:51:18.761Z,70.42
2022-09-05T11:54:21.285Z,70.43
2022-09-05T11:57:32.529Z,70.64
2022-09-05T12:00:30.525Z,71.07
2022-09-05T12:03:57.004Z,71.17
2022-09-05T12:06:24.547Z,71.22
2022-09-05T12:09:01.385Z,71.33
2022-09-05T12:11:40.064Z,71.25
2022-09-05T12:14:42.420Z,71.17
2022-09-05T12:17:35.454Z,71.23
2022-09-05T12:20:22.338Z,71.10
2022-09-05T12:23:02.826Z,71.30
2022-09-05T12:27:36.412Z,71.01
2022-09-05T12:29:34.077Z,70.94
2022-09-05T12:33:36.611Z,70.09
2022-09-05T12:36:13.305Z,70.25
2022-09-05T12:40:56.526Z,69.74
2022-09-05T12:41:40.806Z,69.50
2022-09-05T12:44:42.584Z,69.29
2022-09-05T12:46:55.914Z,69.13
2022-09-05T12:49:35.283Z,68.71
2022-09-05T12:52:14.067Z,68.24
2022-09-05T12:54:47.375Z,68.24
2022-09-05T13:01:36.575Z,68.21
2022-09-05T13:03:04.489Z,67.72
2022-09-05T13:03:28.029Z,67.85
2022-09-05T13:06:19.492Z,67.72
2022-09-05T13:09:05.991Z,67.04
2022-09-05T13:14:47.605Z,67.18
2022-09-05T13:15:14.047Z,67.08
2022-09-05T13:17:46.035Z,67.11
2022-09-05T13:20:19.998Z,67.35
2022-09-05T13:22:51.582Z,66.71
2022-09-05T13:25:28.089Z,66.55
2022-09-05T13:28:02.660Z,65.99
2022-09-05T13:37:14.847Z,65.74
2022-09-05T13:37:58.801Z,65.81
2022-09-05T13:38:12.828Z,65.94
2022-09-05T13:40:10.741Z,66.15
2022-09-05T13:42:45.772Z,66.31
2022-09-05T13:45:19.784Z,66.30
2022-09-05T13:48:12.003Z,66.41
2022-09-05T13:50:49.153Z,66.54
2022-09-05T13:53:22.373Z,66.73
2022-09-05T13:56:03.022Z,66.86
2022-09-05T13:58:52.391Z,66.88
2022-09-05T14:02:26.200Z,66.84
2022-09-05T14:05:24.091Z,66.91
2022-09-05T14:08:17.918Z,66.71
2022-09-05T14:11:08.701Z,66.77
2022-09-05T14:13:51.113Z,66.55
2022-09-05T14:16:27.435Z,66.52
2022-09-05T14:19:15.313Z,66.56
2022-09-05T14:21:45.314Z,66.63
2022-09-05T14:24:27.329Z,66.59
2022-09-05T14:27:32.266Z,66.53
2022-09-05T14:32:14.428Z,66.52
2022-09-05T14:37:44.559Z,66.75
2022-09-05T14:37:51.714Z,66.59
2022-09-05T14:39:40.723Z,66.45
2022-09-05T14:42:36.522Z,66.55
2022-09-05T14:45:25.327Z,66.53
2022-09-05T14:48:14.329Z,66.67
2022-09-05T14:51:24.403Z,66.81
2022-09-05T14:59:35.374Z,66.36
2022-09-05T15:02:53.850Z,66.51
2022-09-05T15:03:02.002Z,66.60
2022-09-05T15:05:31.983Z,66.89
2022-09-05T15:08:35.246Z,67.15
2022-09-05T15:12:18.872Z,66.99
2022-09-05T15:14:07.366Z,66.99
2022-09-05T15:16:39.834Z,66.61
2022-09-05T15:19:11.450Z,66.78
2022-09-05T15:21:42.238Z,66.66
2022-09-05T15:24:21.953Z,66.52
2022-09-05T15:26:58.277Z,66.30
2022-09-05T15:29:36.417Z,66.39
2022-09-05T15:32:37.368Z,66.31
2022-09-05T15:35:07.246Z,66.15
2022-09-05T15:37:41.800Z,66.31
2022-09-05T15:40:24.451Z,66.27
2022-09-05T15:43:01.760Z,66.19
2022-09-05T15:45:36.407Z,65.87
2022-09-05T15:48:15.387Z,65.73
2022-09-05T15:50:51.416Z,65.09
2022-09-05T15:53:30.094Z,64.77
2022-09-05T15:56:18.001Z,64.25
2022-09-05T15:58:55.219Z,63.75
2022-09-05T16:01:59.890Z,63.69
2022-09-05T16:08:38.212Z,63.67
2022-09-05T16:10:38.384Z,63.84
2022-09-05T16:11:05.386Z,63.82
2022-09-05T16:13:46.347Z,63.80
2022-09-05T16:21:14.357Z,63.59
2022-09-05T16:23:23.943Z,62.05
2022-09-05T16:23:25.661Z,62.55
2022-09-05T16:24:59.248Z,61.86
2022-09-05T16:27:55.237Z,61.85
2022-09-05T16:30:32.446Z,61.41
2022-09-05T16:33:06.726Z,60.85
2022-09-05T16:35:39.618Z,60.41
2022-09-05T16:38:25.880Z,59.92
2022-09-05T16:41:22.240Z,59.41
2022-09-05T16:44:05.325Z,59.15
2022-09-05T16:46:43.049Z,58.97
2022-09-05T16:49:42.107Z,58.02
2022-09-05T16:52:17.882Z,57.98
2022-09-05T16:55:05.268Z,58.00
2022-09-05T16:57:36.897Z,57.14
2022-09-05T17:00:06.674Z,57.41
2022-09-05T17:02:52.132Z,57.67
2022-09-05T17:05:47.107Z,55.60
2022-09-05T17:08:29.162Z,56.07
2022-09-05T17:11:13.855Z,56.79
2022-09-05T17:13:58.145Z,56.94
2022-09-05T17:16:30.873Z,57.68
2022-09-05T17:19:02.222Z,58.14
2022-09-05T17:24:21.660Z,58.38
2022-09-05T17:29:19.600Z,58.85
2022-09-05T17:29:28.585Z,59.33
2022-09-05T17:32:57.256Z,60.04
2022-09-05T17:35:43.335Z,60.25
2022-09-05T17:38:22.147Z,60.71
2022-09-05T17:41:08.088Z,61.44
2022-09-05T17:43:40.506Z,61.69
2022-09-05T17:46:21.173Z,62.42
2022-09-05T17:49:05.415Z,63.00
2022-09-05T17:51:36.386Z,63.19
2022-09-05T17:54:05.886Z,63.55
2022-09-05T17:56:45.554Z,63.77
2022-09-05T17:59:19.805Z,63.93
2022-09-05T18:02:02.869Z,63.57
2022-09-05T18:04:53.470Z,64.72
2022-09-05T18:07:23.142Z,65.25
2022-09-05T18:10:15.078Z,65.48
2022-09-05T18:13:14.016Z,66.13
2022-09-05T18:15:41.293Z,66.32
2022-09-05T18:19:28.375Z,66.45
2022-09-05T18:21:23.188Z,66.54
2022-09-05T18:24:07.981Z,66.51
2022-09-05T18:26:45.772Z,67.26
2022-09-05T18:29:58.009Z,68.08
2022-09-05T18:32:41.337Z,69.35
2022-09-05T18:35:37.366Z,70.10
2022-09-05T18:38:05.683Z,70.41
2022-09-05T18:41:07.317Z,70.03
2022-09-05T18:43:37.842Z,70.62
2022-09-05T18:46:24.157Z,71.02
2022-09-05T18:49:44.988Z,72.62
2022-09-05T18:52:03.455Z,72.54
2022-09-05T18:54:35.057Z,72.39
2022-09-05T18:57:26.159Z,72.66
2022-09-05T18:59:57.374Z,72.93
2022-09-05T19:02:59.131Z,73.72
2022-09-05T19:05:47.057Z,74.18
2022-09-05T19:08:38.539Z,74.52
2022-09-05T19:11:27.771Z,74.95
2022-09-05T19:14:26.642Z,75.40
2022-09-05T19:16:50.053Z,75.92
2022-09-05T19:19:24.789Z,76.03
2022-09-05T19:22:39.456Z,76.15
2022-09-05T19:24:48.342Z,75.95
2022-09-05T19:32:29.358Z,75.48
2022-09-05T19:36:53.901Z,75.10
2022-09-05T19:36:56.242Z,75.11
2022-09-05T19:36:57.822Z,75.25
2022-09-05T19:39:49.411Z,74.98
2022-09-05T19:47:25.719Z,75.06
2022-09-05T19:47:38.727Z,75.06
2022-09-05T19:48:03.879Z,75.35
2022-09-05T19:50:32.083Z,75.16
2022-09-05T19:53:08.257Z,75.09
2022-09-05T19:55:39.909Z,75.36
2022-09-05T19:58:20.646Z,76.51
2022-09-05T20:01:02.267Z,76.89
2022-09-05T20:03:38.479Z,76.56
2022-09-05T20:06:29.136Z,77.37
2022-09-05T20:09:16.455Z,77.25
2022-09-05T20:11:53.469Z,77.46
2022-09-05T20:14:37.700Z,78.96
2022-09-05T20:17:29.525Z,78.47
2022-09-05T20:20:10.716Z,77.62
2022-09-05T20:22:48.645Z,77.27
2022-09-05T20:25:35.108Z,77.10
2022-09-05T20:28:09.834Z,76.85
2022-09-05T20:30:42.386Z,77.28
2022-09-05T20:33:51.714Z,78.11
2022-09-05T20:43:18.357Z,78.39
2022-09-05T20:43:18.458Z,78.45
2022-09-05T20:43:23.029Z,78.03
2022-09-05T20:46:30.646Z,79.63
2022-09-05T20:54:04.644Z,77.93
2022-09-05T20:54:20.536Z,77.65
2022-09-05T20:54:35.039Z,77.43
2022-09-05T20:57:24.030Z,77.62
2022-09-05T20:59:57.423Z,79.02
2022-09-05T21:02:32.498Z,79.62
2022-09-05T21:05:20.318Z,81.92
2022-09-05T21:08:01.176Z,82.17
2022-09-05T21:10:54.822Z,82.55
2022-09-05T21:13:30.173Z,82.86
2022-09-05T21:15:58.435Z,83.22
2022-09-05T21:18:33.825Z,82.42
2022-09-05T21:21:10.304Z,80.47
2022-09-05T21:24:17.268Z,79.97
2022-09-05T21:26:50.263Z,79.69
2022-09-05T21:29:33.015Z,80.24
2022-09-05T21:32:03.964Z,81.25
2022-09-05T21:34:44.899Z,81.10
2022-09-05T21:37:16.317Z,81.16
2022-09-05T21:40:00.137Z,81.33
2022-09-05T21:47:05.514Z,81.66
2022-09-05T21:47:45.068Z,81.99
2022-09-05T21:48:11.565Z,81.62
2022-09-05T21:50:50.505Z,81.06
2022-09-05T21:59:13.600Z,80.67
2022-09-05T21:59:25.012Z,80.16
2022-09-05T21:59:46.121Z,80.53
2022-09-05T22:02:08.204Z,81.19
2022-09-05T22:04:41.237Z,81.90
2022-09-05T22:07:14.916Z,82.46
2022-09-05T22:09:42.985Z,83.54
2022-09-05T22:12:17.430Z,84.11
2022-09-05T22:15:08.655Z,84.80
2022-09-05T22:17:48.266Z,84.92
2022-09-05T22:20:18.695Z,84.82
2022-09-05T22:22:56.455Z,85.01
2022-09-05T22:25:29.665Z,85.46
2022-09-05T22:28:11.601Z,85.56
2022-09-05T22:30:40.346Z,84.96
2022-09-05T22:33:08.986Z,84.45
2022-09-05T22:35:40.102Z,84.29
2022-09-05T22:38:15.232Z,83.91
2022-09-05T22:40:45.730Z,83.47
2022-09-05T22:43:16.004Z,83.08
2022-09-05T22:45:43.711Z,83.37
2022-09-05T22:48:14.026Z,83.85
2022-09-05T22:50:43.380Z,83.64
2022-09-05T22:53:11.560Z,84.78
2022-09-05T22:55:44.224Z,84.64
2022-09-05T22:58:15.194Z,85.14
2022-09-05T23:00:45.259Z,85.49
2022-09-05T23:03:13.306Z,85.56
2022-09-05T23:05:41.009Z,85.97
2022-09-05T23:08:09.653Z,86.73
2022-09-05T23:10:38.154Z,87.64
2022-09-05T23:13:08.299Z,87.01
2022-09-05T23:15:36.794Z,88.00
2022-09-05T23:18:05.603Z,86.99
2022-09-05T23:20:34.019Z,86.95
2022-09-05T23:23:05.611Z,87.77
2022-09-05T23:25:34.658Z,88.20
2022-09-05T23:28:11.553Z,87.98
2022-09-05T23:30:40.370Z,89.23
2022-09-05T23:33:09.760Z,88.55
2022-09-05T23:35:38.391Z,88.37
2022-09-05T23:38:12.841Z,88.69
2022-09-05T23:40:40.537Z,87.99
2022-09-05T23:43:08.959Z,87.87
2022-09-05T23:45:36.689Z,87.65
2022-09-05T23:48:04.481Z,87.68
2022-09-05T23:50:32.172Z,88.12
2022-09-05T23:53:05.275Z,88.75
2022-09-05T23:55:33.819Z,89.80
2022-09-05T23:58:01.831Z,90.46
